createdAt,value
2018-02-09T00:01:07.209Z,-3.04
2018-02-09T00:02:33.079Z,-3.20
2018-02-09T00:03:59.751Z,-3.33
2018-02-09T00:05:27.822Z,-3.50
2018-02-09T00:06:53.537Z,-3.57
2018-02-09T00:08:21.515Z,-3.65
2018-02-09T00:09:48.757Z,-3.73
2018-02-09T00:11:15.798Z,-3.77
2018-02-09T00:12:42.759Z,-3.81
2018-02-09T00:14:09.714Z,-3.81
2018-02-09T00:15:36.629Z,-3.78
2018-02-09T00:17:03.324Z,-3.72
2018-02-09T00:18:30.175Z,-3.64
2018-02-09T00:19:56.222Z,-3.55
2018-02-09T00:21:22.992Z,-3.49
2018-02-09T00:22:50.766Z,-3.41
2018-02-09T00:24:17.807Z,-3.33
2018-02-09T00:25:44.905Z,-3.28
2018-02-09T00:27:10.669Z,-3.28
2018-02-09T00:28:38.716Z,-3.23
2018-02-09T00:30:05.650Z,-3.21
2018-02-09T00:31:32.514Z,-3.19
2018-02-09T00:32:59.511Z,-3.24
2018-02-09T00:34:26.199Z,-3.34
2018-02-09T00:35:53.215Z,-3.44
2018-02-09T00:37:20.131Z,-3.55
2018-02-09T00:38:45.956Z,-3.58
2018-02-09T00:40:12.685Z,-3.56
2018-02-09T00:41:39.589Z,-3.52
2018-02-09T00:43:07.442Z,-3.45
2018-02-09T00:44:34.569Z,-3.37
2018-02-09T00:46:00.547Z,-3.29
2018-02-09T00:47:28.504Z,-3.21
2018-02-09T00:48:55.292Z,-3.15
2018-02-09T00:50:22.275Z,-3.14
2018-02-09T00:51:49.237Z,-3.16
2018-02-09T00:53:16.016Z,-3.17
2018-02-09T00:54:42.864Z,-3.16
2018-02-09T00:56:09.789Z,-3.19
2018-02-09T00:57:36.839Z,-3.32
2018-02-09T00:59:03.738Z,-3.38
2018-02-09T01:00:29.876Z,-3.43
2018-02-09T01:01:57.616Z,-3.41
2018-02-09T01:03:24.405Z,-3.45
2018-02-09T01:04:51.349Z,-3.39
2018-02-09T01:06:18.467Z,-3.37
2018-02-09T01:07:45.577Z,-3.34
2018-02-09T01:09:12.642Z,-3.31
2018-02-09T01:10:39.378Z,-3.26
2018-02-09T01:12:05.394Z,-3.25
2018-02-09T01:13:33.462Z,-3.20
2018-02-09T01:15:00.375Z,-3.21
2018-02-09T01:16:27.172Z,-3.31
2018-02-09T01:17:54.205Z,-3.39
2018-02-09T01:19:20.175Z,-3.43
2018-02-09T01:20:46.941Z,-3.49
2018-02-09T01:22:14.573Z,-3.54
2018-02-09T01:23:41.370Z,-3.64
2018-02-09T01:25:08.375Z,-3.65
2018-02-09T01:26:34.171Z,-3.61
2018-02-09T01:28:01.048Z,-3.60
2018-02-09T01:29:28.916Z,-3.57
2018-02-09T01:30:55.653Z,-3.52
2018-02-09T01:32:22.670Z,-3.48
2018-02-09T01:33:49.486Z,-3.46
2018-02-09T01:35:16.467Z,-3.47
2018-02-09T01:36:43.440Z,-3.45
2018-02-09T01:38:10.542Z,-3.42
2018-02-09T01:39:36.580Z,-3.40
2018-02-09T01:41:04.238Z,-3.46
2018-02-09T01:42:31.284Z,-3.52
2018-02-09T01:43:57.956Z,-3.56
2018-02-09T01:45:24.736Z,-3.60
2018-02-09T01:46:51.576Z,-3.67
2018-02-09T01:48:18.577Z,-3.74
2018-02-09T01:49:44.516Z,-3.75
2018-02-09T01:51:12.428Z,-3.73
2018-02-09T01:52:38.359Z,-3.68
2018-02-09T01:54:06.242Z,-3.64
2018-02-09T01:55:33.479Z,-3.59
2018-02-09T01:57:00.488Z,-3.56
2018-02-09T01:58:26.473Z,-3.54
2018-02-09T01:59:54.567Z,-3.58
2018-02-09T02:01:21.414Z,-3.70
2018-02-09T02:02:48.355Z,-3.78
2018-02-09T02:04:15.498Z,-3.79
2018-02-09T02:05:41.558Z,-3.78
2018-02-09T02:07:09.655Z,-3.81
2018-02-09T02:08:36.477Z,-3.89
2018-02-09T02:10:02.618Z,-3.97
2018-02-09T02:11:30.528Z,-4.06
2018-02-09T02:12:56.467Z,-4.12
2018-02-09T02:14:24.239Z,-4.13
2018-02-09T02:15:50.172Z,-4.10
2018-02-09T02:17:18.150Z,-4.03
2018-02-09T02:18:44.887Z,-3.93
2018-02-09T02:20:11.835Z,-3.85
2018-02-09T02:21:38.765Z,-3.81
2018-02-09T02:23:04.857Z,-3.78
2018-02-09T02:24:32.671Z,-3.72
2018-02-09T02:25:59.657Z,-3.69
2018-02-09T02:27:25.474Z,-3.69
2018-02-09T02:28:52.209Z,-3.69
2018-02-09T02:30:20.063Z,-3.69
2018-02-09T02:31:46.067Z,-3.70
2018-02-09T02:33:12.951Z,-3.70
2018-02-09T02:34:40.869Z,-3.69
2018-02-09T02:36:07.878Z,-3.66
2018-02-09T02:37:34.642Z,-3.62
2018-02-09T02:39:00.474Z,-3.60
2018-02-09T02:40:28.115Z,-3.61
2018-02-09T02:41:55.107Z,-3.62
2018-02-09T02:43:22.043Z,-3.62
2018-02-09T02:44:49.084Z,-3.65
2018-02-09T02:46:15.179Z,-3.68
2018-02-09T02:47:43.334Z,-3.70
2018-02-09T02:49:09.248Z,-3.74
2018-02-09T02:50:37.064Z,-3.77
2018-02-09T02:52:03.845Z,-3.81
2018-02-09T02:53:30.927Z,-3.89
2018-02-09T02:54:57.697Z,-4.06
2018-02-09T02:56:23.664Z,-4.12
2018-02-09T02:57:50.694Z,-4.12
2018-02-09T02:59:18.607Z,-4.15
2018-02-09T03:00:44.569Z,-4.13
2018-02-09T03:02:11.459Z,-4.15
2018-02-09T03:03:38.539Z,-4.15
2018-02-09T03:05:06.421Z,-4.13
2018-02-09T03:06:33.444Z,-4.14
2018-02-09T03:08:00.365Z,-4.16
2018-02-09T03:09:27.437Z,-4.17
2018-02-09T03:10:54.249Z,-4.19
2018-02-09T03:12:20.381Z,-4.21
2018-02-09T03:13:48.194Z,-4.14
2018-02-09T03:15:15.228Z,-4.15
2018-02-09T03:16:42.228Z,-4.13
2018-02-09T03:18:09.245Z,-4.17
2018-02-09T03:19:35.301Z,-4.17
2018-02-09T03:21:03.397Z,-4.22
2018-02-09T03:22:30.364Z,-4.27
2018-02-09T03:23:57.394Z,-4.27
2018-02-09T03:25:23.300Z,-4.27
2018-02-09T03:26:50.078Z,-4.23
2018-02-09T03:28:17.785Z,-4.18
2018-02-09T03:29:44.440Z,-4.10
2018-02-09T03:31:11.342Z,-4.06
2018-02-09T03:32:38.254Z,-4.01
2018-02-09T03:34:05.212Z,-3.98
2018-02-09T03:35:32.209Z,-3.94
2018-02-09T03:36:59.021Z,-3.91
2018-02-09T03:38:24.927Z,-3.88
2018-02-09T03:39:52.944Z,-3.84
2018-02-09T03:41:19.916Z,-3.81
2018-02-09T03:42:45.848Z,-3.78
2018-02-09T03:44:13.913Z,-3.80
2018-02-09T03:45:40.776Z,-3.82
2018-02-09T03:47:06.673Z,-3.83
2018-02-09T03:48:33.603Z,-3.84
2018-02-09T03:50:00.668Z,-3.82
2018-02-09T03:51:28.378Z,-3.81
2018-02-09T03:52:55.318Z,-3.81
2018-02-09T03:54:22.289Z,-3.80
2018-02-09T03:55:48.212Z,-3.80
2018-02-09T03:57:16.017Z,-3.83
2018-02-09T03:58:42.910Z,-3.82
2018-02-09T04:00:08.829Z,-3.79
2018-02-09T04:01:35.807Z,-3.80
2018-02-09T04:03:03.613Z,-3.80
2018-02-09T04:04:30.380Z,-3.84
2018-02-09T04:05:57.243Z,-3.86
2018-02-09T04:07:23.108Z,-3.88
2018-02-09T04:08:50.075Z,-3.86
2018-02-09T04:10:17.893Z,-3.85
2018-02-09T04:11:44.968Z,-3.85
2018-02-09T04:13:11.972Z,-3.85
2018-02-09T04:14:38.742Z,-3.85
2018-02-09T04:16:05.679Z,-3.83
2018-02-09T04:17:32.673Z,-3.87
2018-02-09T04:18:59.653Z,-3.91
2018-02-09T04:20:26.294Z,-3.93
2018-02-09T04:21:53.107Z,-3.96
2018-02-09T04:23:18.976Z,-3.97
2018-02-09T04:24:45.905Z,-3.96
2018-02-09T04:26:14.033Z,-3.95
2018-02-09T04:27:41.062Z,-3.94
2018-02-09T04:29:08.032Z,-3.95
2018-02-09T04:30:34.888Z,-3.93
2018-02-09T04:32:00.682Z,-3.95
2018-02-09T04:33:27.619Z,-3.95
2018-02-09T04:34:55.591Z,-3.98
2018-02-09T04:36:22.583Z,-3.95
2018-02-09T04:37:49.729Z,-3.93
2018-02-09T04:39:16.792Z,-3.91
2018-02-09T04:40:42.446Z,-3.91
2018-02-09T04:42:09.528Z,-3.91
2018-02-09T04:43:37.675Z,-3.89
2018-02-09T04:45:04.527Z,-3.89
2018-02-09T04:46:31.444Z,-3.89
2018-02-09T04:47:58.373Z,-3.90
2018-02-09T04:49:25.269Z,-3.92
2018-02-09T04:50:52.348Z,-3.94
2018-02-09T04:52:19.473Z,-3.95
2018-02-09T04:53:45.351Z,-3.96
2018-02-09T04:55:13.336Z,-3.96
2018-02-09T04:56:40.442Z,-3.96
2018-02-09T04:58:07.386Z,-3.94
2018-02-09T04:59:34.176Z,-3.96
2018-02-09T05:00:59.989Z,-4.10
2018-02-09T05:02:30.188Z,-4.21
2018-02-09T05:03:54.767Z,-4.33
2018-02-09T05:05:21.771Z,-4.34
2018-02-09T05:06:47.744Z,-4.31
2018-02-09T05:08:15.605Z,-4.27
2018-02-09T05:09:41.526Z,-4.22
2018-02-09T05:11:08.453Z,-4.21
2018-02-09T05:12:36.435Z,-4.29
2018-02-09T05:14:02.404Z,-4.46
2018-02-09T05:15:30.226Z,-4.54
2018-02-09T05:16:56.938Z,-4.58
2018-02-09T05:18:23.758Z,-4.61
2018-02-09T05:19:50.619Z,-4.58
2018-02-09T05:21:17.614Z,-4.52
2018-02-09T05:22:44.586Z,-4.48
2018-02-09T05:24:10.714Z,-4.51
2018-02-09T05:25:37.817Z,-4.56
2018-02-09T05:27:05.776Z,-4.59
2018-02-09T05:28:32.814Z,-4.68
2018-02-09T05:29:58.783Z,-4.85
2018-02-09T05:31:25.717Z,-4.91
2018-02-09T05:32:53.548Z,-4.98
2018-02-09T05:34:19.658Z,-4.93
2018-02-09T05:35:46.567Z,-4.93
2018-02-09T05:37:14.493Z,-4.97
2018-02-09T05:38:41.325Z,-4.98
2018-02-09T05:40:07.268Z,-4.88
2018-02-09T05:41:35.084Z,-4.82
2018-02-09T05:43:03.864Z,-4.72
2018-02-09T05:44:28.417Z,-4.67
2018-02-09T05:45:55.328Z,-4.64
2018-02-09T05:47:21.109Z,-4.59
2018-02-09T05:48:47.867Z,-4.54
2018-02-09T05:50:15.836Z,-4.51
2018-02-09T05:51:42.640Z,-4.46
2018-02-09T05:53:08.791Z,-4.42
2018-02-09T05:54:36.804Z,-4.40
2018-02-09T05:56:03.679Z,-4.42
2018-02-09T05:57:29.820Z,-4.41
2018-02-09T05:58:57.004Z,-4.39
2018-02-09T06:00:24.852Z,-4.35
2018-02-09T06:01:51.812Z,-4.34
2018-02-09T06:03:18.558Z,-4.36
2018-02-09T06:04:44.544Z,-4.45
2018-02-09T06:06:12.506Z,-4.54
2018-02-09T06:07:39.319Z,-4.60
2018-02-09T06:09:05.194Z,-4.62
2018-02-09T06:10:32.146Z,-4.59
2018-02-09T06:12:00.028Z,-4.55
2018-02-09T06:13:25.921Z,-4.50
2018-02-09T06:14:52.764Z,-4.46
2018-02-09T06:16:20.571Z,-4.44
2018-02-09T06:17:47.580Z,-4.44
2018-02-09T06:19:13.667Z,-4.43
2018-02-09T06:20:41.572Z,-4.42
2018-02-09T06:22:08.532Z,-4.40
2018-02-09T06:23:34.410Z,-4.40
2018-02-09T06:25:02.107Z,-4.40
2018-02-09T06:26:27.990Z,-4.42
2018-02-09T06:27:55.974Z,-4.42
2018-02-09T06:29:23.059Z,-4.40
2018-02-09T06:30:50.057Z,-4.39
2018-02-09T06:32:16.057Z,-4.41
2018-02-09T06:33:43.874Z,-4.48
2018-02-09T06:35:09.885Z,-4.57
2018-02-09T06:36:37.762Z,-4.64
2018-02-09T06:38:04.703Z,-4.75
2018-02-09T06:39:30.633Z,-4.85
2018-02-09T06:40:57.537Z,-4.93
2018-02-09T06:42:25.366Z,-5.00
2018-02-09T06:43:52.307Z,-5.04
2018-02-09T06:45:18.131Z,-5.04
2018-02-09T06:46:46.108Z,-5.05
2018-02-09T06:48:13.080Z,-5.03
2018-02-09T06:49:39.163Z,-5.02
2018-02-09T06:51:06.115Z,-5.00
2018-02-09T06:52:34.161Z,-5.00
2018-02-09T06:54:01.006Z,-4.91
2018-02-09T06:55:27.890Z,-4.82
2018-02-09T06:56:54.644Z,-4.79
2018-02-09T06:58:21.793Z,-4.77
2018-02-09T06:59:48.881Z,-4.87
2018-02-09T07:01:14.913Z,-4.93
2018-02-09T07:02:42.770Z,-4.96
2018-02-09T07:04:08.747Z,-5.00
2018-02-09T07:05:35.825Z,-5.01
2018-02-09T07:07:04.438Z,-5.05
2018-02-09T07:08:29.480Z,-5.16
2018-02-09T07:09:57.583Z,-5.27
2018-02-09T07:11:24.435Z,-5.34
2018-02-09T07:12:53.430Z,-5.37
2018-02-09T07:14:18.159Z,-5.39
2018-02-09T07:15:44.986Z,-5.42
2018-02-09T07:17:11.865Z,-5.42
2018-02-09T07:18:38.855Z,-5.41
2018-02-09T07:20:05.702Z,-5.39
2018-02-09T07:21:31.694Z,-5.33
2018-02-09T07:22:59.490Z,-5.26
2018-02-09T07:24:25.609Z,-5.20
2018-02-09T07:25:53.387Z,-5.13
2018-02-09T07:27:20.407Z,-5.09
2018-02-09T07:28:47.336Z,-5.04
2018-02-09T07:30:14.290Z,-5.00
2018-02-09T07:31:41.303Z,-4.95
2018-02-09T07:33:06.878Z,-4.90
2018-02-09T07:34:34.665Z,-4.85
2018-02-09T07:36:00.509Z,-4.78
2018-02-09T07:37:28.212Z,-4.72
2018-02-09T07:38:54.966Z,-4.66
2018-02-09T07:40:21.076Z,-4.57
2018-02-09T07:41:48.861Z,-4.54
2018-02-09T07:43:15.785Z,-4.49
2018-02-09T07:44:42.503Z,-4.48
2018-02-09T07:46:08.550Z,-4.46
2018-02-09T07:47:35.476Z,-4.44
2018-02-09T07:49:02.368Z,-4.42
2018-02-09T07:50:30.337Z,-4.36
2018-02-09T07:51:57.377Z,-4.32
2018-02-09T07:53:23.087Z,-4.31
2018-02-09T07:54:51.042Z,-4.28
2018-02-09T07:56:17.993Z,-4.22
2018-02-09T07:57:44.872Z,-4.17
2018-02-09T07:59:11.701Z,-4.12
2018-02-09T08:00:38.518Z,-4.06
2018-02-09T08:02:04.603Z,-4.04
2018-02-09T08:03:32.426Z,-4.01
2018-02-09T08:04:59.082Z,-3.98
2018-02-09T08:06:25.868Z,-3.92
2018-02-09T08:07:52.788Z,-3.85
2018-02-09T08:09:19.664Z,-3.78
2018-02-09T08:10:46.680Z,-3.71
2018-02-09T08:12:13.570Z,-3.70
2018-02-09T08:13:40.555Z,-3.67
2018-02-09T08:15:06.517Z,-3.58
2018-02-09T08:16:33.358Z,-3.56
2018-02-09T08:18:03.400Z,-3.52
2018-02-09T08:19:28.267Z,-3.49
2018-02-09T08:20:55.092Z,-3.45
2018-02-09T08:22:20.955Z,-3.43
2018-02-09T08:23:49.020Z,-3.43
2018-02-09T08:25:16.037Z,-3.40
2018-02-09T08:26:42.645Z,-3.41
2018-02-09T08:28:08.489Z,-3.42
2018-02-09T08:29:35.390Z,-3.38
2018-02-09T08:31:03.472Z,-3.36
2018-02-09T08:32:30.165Z,-3.36
2018-02-09T08:33:56.946Z,-3.36
2018-02-09T08:35:22.714Z,-3.36
2018-02-09T08:36:49.480Z,-3.31
2018-02-09T08:38:16.595Z,-3.27
2018-02-09T08:39:44.373Z,-3.26
2018-02-09T08:41:11.495Z,-3.26
2018-02-09T08:42:38.406Z,-3.22
2018-02-09T08:44:05.098Z,-3.21
2018-02-09T08:45:32.062Z,-3.19
2018-02-09T08:46:59.038Z,-3.20
2018-02-09T08:48:25.700Z,-3.17
2018-02-09T08:49:51.620Z,-3.14
2018-02-09T08:51:18.643Z,-3.09
2018-02-09T08:52:46.750Z,-3.02
2018-02-09T08:54:13.561Z,-2.93
2018-02-09T08:55:39.732Z,-2.90
2018-02-09T08:57:06.625Z,-2.85
2018-02-09T08:58:33.626Z,-2.81
2018-02-09T09:00:01.572Z,-2.75
2018-02-09T09:01:28.589Z,-2.63
2018-02-09T09:02:54.563Z,-2.53
2018-02-09T09:04:22.601Z,-2.47
2018-02-09T09:05:48.501Z,-2.42
2018-02-09T09:07:16.411Z,-2.50
2018-02-09T09:08:43.528Z,-2.51
2018-02-09T09:10:10.435Z,-2.48
2018-02-09T09:11:37.459Z,-2.42
2018-02-09T09:13:04.113Z,-2.40
2018-02-09T09:14:30.220Z,-2.38
2018-02-09T09:15:58.109Z,-2.38
2018-02-09T09:17:25.032Z,-2.41
2018-02-09T09:18:51.951Z,-2.39
2018-02-09T09:20:19.095Z,-2.35
2018-02-09T09:21:45.921Z,-2.28
2018-02-09T09:23:12.572Z,-2.22
2018-02-09T09:24:39.673Z,-2.11
2018-02-09T09:26:06.542Z,-2.04
2018-02-09T09:27:32.165Z,-2.10
2018-02-09T09:29:00.372Z,-2.02
2018-02-09T09:30:26.890Z,-2.01
2018-02-09T09:31:53.698Z,-2.01
2018-02-09T09:33:20.880Z,-1.99
2018-02-09T09:34:47.861Z,-1.98
2018-02-09T09:36:14.684Z,-1.97
2018-02-09T09:37:41.710Z,-1.94
2018-02-09T09:39:08.483Z,-1.85
2018-02-09T09:40:34.555Z,-1.78
2018-02-09T09:42:01.429Z,-1.73
2018-02-09T09:43:29.286Z,-1.71
2018-02-09T09:44:55.105Z,-1.64
2018-02-09T09:46:23.032Z,-1.62
2018-02-09T09:47:50.112Z,-1.59
2018-02-09T09:49:17.410Z,-1.56
2018-02-09T09:50:44.575Z,-1.56
2018-02-09T09:52:10.433Z,-1.54
2018-02-09T09:53:38.478Z,-1.54
2018-02-09T09:55:05.396Z,-1.49
2018-02-09T09:56:32.515Z,-1.46
2018-02-09T09:57:58.541Z,-1.43
2018-02-09T09:59:25.466Z,-1.36
2018-02-09T10:00:53.501Z,-1.27
2018-02-09T10:02:19.413Z,-1.21
2018-02-09T10:03:47.849Z,-1.21
2018-02-09T10:05:14.054Z,-1.21
2018-02-09T10:06:42.218Z,-1.18
2018-02-09T10:08:09.432Z,-1.12
2018-02-09T10:09:36.384Z,-1.06
2018-02-09T10:11:03.122Z,-0.99
2018-02-09T10:12:29.222Z,-0.95
2018-02-09T10:13:56.935Z,-0.94
2018-02-09T10:15:23.716Z,-0.91
2018-02-09T10:16:50.751Z,-0.83
2018-02-09T10:18:17.628Z,-0.79
2018-02-09T10:19:44.592Z,-0.71
2018-02-09T10:21:10.288Z,-0.68
2018-02-09T10:22:37.477Z,-0.71
2018-02-09T10:24:05.093Z,-0.65
2018-02-09T10:25:32.175Z,-0.59
2018-02-09T10:26:59.317Z,-0.54
2018-02-09T10:28:26.203Z,-0.50
2018-02-09T10:29:53.407Z,-0.54
2018-02-09T10:31:19.232Z,-0.54
2018-02-09T10:32:47.283Z,-0.57
2018-02-09T10:34:13.098Z,-0.53
2018-02-09T10:35:40.329Z,-0.50
2018-02-09T10:37:08.407Z,-0.52
2018-02-09T10:38:35.589Z,-0.47
2018-02-09T10:40:02.564Z,-0.38
2018-02-09T10:41:29.643Z,-0.31
2018-02-09T10:42:55.691Z,-0.27
2018-02-09T10:44:23.146Z,-0.27
2018-02-09T10:45:50.285Z,-0.26
2018-02-09T10:47:16.156Z,-0.19
2018-02-09T10:48:43.470Z,-0.19
2018-02-09T10:50:11.201Z,-0.17
2018-02-09T10:51:37.397Z,-0.20
2018-02-09T10:53:05.320Z,-0.20
2018-02-09T10:54:31.226Z,-0.17
2018-02-09T10:55:59.350Z,-0.10
2018-02-09T10:57:26.368Z,-0.04
2018-02-09T10:58:53.240Z,-0.02
2018-02-09T11:00:19.922Z,-0.02
2018-02-09T11:01:46.137Z,0.04
2018-02-09T11:03:13.443Z,0.07
2018-02-09T11:04:41.620Z,0.11
2018-02-09T11:06:08.487Z,0.17
2018-02-09T11:07:34.704Z,0.23
2018-02-09T11:09:02.679Z,0.24
2018-02-09T11:10:29.660Z,0.24
2018-02-09T11:11:55.468Z,0.29
2018-02-09T11:13:22.630Z,0.32
2018-02-09T11:14:50.781Z,0.35
2018-02-09T11:16:17.662Z,0.34
2018-02-09T11:17:43.902Z,0.34
2018-02-09T11:19:10.623Z,0.38
2018-02-09T11:20:43.836Z,0.42
2018-02-09T11:22:04.774Z,0.47
2018-02-09T11:23:32.929Z,0.53
2018-02-09T11:24:59.844Z,0.60
2018-02-09T11:26:26.944Z,0.66
2018-02-09T11:27:53.871Z,0.65
2018-02-09T11:29:20.035Z,0.54
2018-02-09T11:30:48.425Z,0.52
2018-02-09T11:32:14.564Z,0.57
2018-02-09T11:33:42.552Z,0.52
2018-02-09T11:35:09.736Z,0.49
2018-02-09T11:36:36.791Z,0.47
2018-02-09T11:38:03.988Z,0.45
2018-02-09T11:39:31.149Z,0.51
2018-02-09T11:40:57.842Z,0.49
2018-02-09T11:42:23.717Z,0.59
2018-02-09T11:43:51.450Z,0.68
2018-02-09T11:45:18.358Z,0.76
2018-02-09T11:46:45.485Z,0.85
2018-02-09T11:48:12.676Z,0.88
2018-02-09T11:49:39.106Z,0.96
2018-02-09T11:51:04.713Z,1.02
2018-02-09T11:52:31.865Z,1.16
2018-02-09T11:53:59.600Z,1.23
2018-02-09T11:55:26.649Z,1.24
2018-02-09T11:56:53.793Z,1.04
2018-02-09T11:58:20.681Z,1.06
2018-02-09T11:59:47.729Z,1.14
2018-02-09T12:01:13.870Z,1.29
2018-02-09T12:02:41.816Z,1.27
2018-02-09T12:04:08.968Z,1.34
2018-02-09T12:05:36.095Z,1.32
2018-02-09T12:07:03.254Z,1.28
2018-02-09T12:08:29.444Z,1.26
2018-02-09T12:09:57.490Z,1.24
2018-02-09T12:11:22.939Z,1.24
2018-02-09T12:12:51.047Z,1.21
2018-02-09T12:14:18.237Z,1.16
2018-02-09T12:15:45.560Z,1.10
2018-02-09T12:17:10.868Z,1.12
2018-02-09T12:18:38.955Z,1.19
2018-02-09T12:20:05.962Z,1.30
2018-02-09T12:21:33.338Z,1.36
2018-02-09T12:22:59.074Z,1.34
2018-02-09T12:24:26.103Z,1.40
2018-02-09T12:25:53.027Z,1.38
2018-02-09T12:27:20.548Z,1.46
2018-02-09T12:28:47.572Z,1.48
2018-02-09T12:30:13.633Z,1.56
2018-02-09T12:31:41.890Z,1.69
2018-02-09T12:33:09.038Z,1.75
2018-02-09T12:34:35.033Z,1.82
2018-02-09T12:36:02.946Z,1.81
2018-02-09T12:37:29.949Z,1.89
2018-02-09T12:38:57.052Z,1.86
2018-02-09T12:40:24.011Z,1.86
2018-02-09T12:41:50.167Z,1.86
2018-02-09T12:43:18.299Z,1.91
2018-02-09T12:44:44.490Z,2.04
2018-02-09T12:46:12.559Z,2.21
2018-02-09T12:47:39.743Z,2.31
2018-02-09T12:49:07.183Z,2.42
2018-02-09T12:50:33.389Z,2.38
2018-02-09T12:52:00.383Z,2.26
2018-02-09T12:53:28.176Z,2.20
2018-02-09T12:54:55.213Z,2.09
2018-02-09T12:56:21.168Z,1.89
2018-02-09T12:57:48.330Z,1.84
2018-02-09T12:59:15.606Z,1.84
2018-02-09T13:00:43.502Z,1.83
2018-02-09T13:02:10.518Z,1.72
2018-02-09T13:03:36.880Z,1.82
2018-02-09T13:05:04.001Z,1.83
2018-02-09T13:06:31.204Z,1.94
2018-02-09T13:07:56.481Z,2.16
2018-02-09T13:09:23.430Z,2.22
2018-02-09T13:10:51.613Z,2.16
2018-02-09T13:12:17.696Z,2.18
2018-02-09T13:13:45.025Z,2.23
2018-02-09T13:15:11.071Z,2.32
2018-02-09T13:16:39.286Z,2.38
2018-02-09T13:18:06.572Z,2.20
2018-02-09T13:19:32.541Z,2.26
2018-02-09T13:20:59.464Z,2.12
2018-02-09T13:22:27.296Z,2.15
2018-02-09T13:23:54.285Z,2.21
2018-02-09T13:25:20.028Z,2.39
2018-02-09T13:26:47.030Z,2.54
2018-02-09T13:28:14.428Z,2.47
2018-02-09T13:29:42.392Z,2.59
2018-02-09T13:31:09.402Z,2.61
2018-02-09T13:32:36.440Z,2.46
2018-02-09T13:34:03.689Z,2.50
2018-02-09T13:35:29.707Z,2.62
2018-02-09T13:36:57.663Z,2.55
2018-02-09T13:38:23.842Z,2.61
2018-02-09T13:39:52.004Z,2.51
2018-02-09T13:41:18.165Z,2.35
2018-02-09T13:42:45.414Z,2.27
2018-02-09T13:44:12.317Z,2.31
2018-02-09T13:45:40.493Z,2.38
2018-02-09T13:47:06.326Z,2.34
2018-02-09T13:48:34.555Z,2.25
2018-02-09T13:50:00.812Z,2.28
2018-02-09T13:51:28.920Z,2.27
2018-02-09T13:52:55.023Z,2.22
2018-02-09T13:54:22.187Z,2.26
2018-02-09T13:55:49.428Z,2.20
2018-02-09T13:57:16.625Z,2.14
2018-02-09T13:58:44.796Z,2.25
2018-02-09T14:00:10.912Z,2.24
2018-02-09T14:01:39.278Z,2.23
2018-02-09T14:03:06.296Z,2.09
2018-02-09T14:04:33.314Z,2.06
2018-02-09T14:05:59.422Z,2.01
2018-02-09T14:07:26.499Z,2.03
2018-02-09T14:08:54.004Z,2.05
2018-02-09T14:10:21.175Z,1.93
2018-02-09T14:11:48.206Z,1.83
2018-02-09T14:13:14.202Z,1.76
2018-02-09T14:14:42.439Z,1.82
2018-02-09T14:16:09.463Z,1.94
2018-02-09T14:17:34.203Z,1.98
2018-02-09T14:19:01.141Z,2.05
2018-02-09T14:20:27.750Z,2.04
2018-02-09T14:21:55.879Z,1.96
2018-02-09T14:23:21.906Z,1.87
2018-02-09T14:24:49.123Z,1.81
2018-02-09T14:26:16.274Z,1.70
2018-02-09T14:27:43.378Z,1.55
2018-02-09T14:29:10.617Z,1.47
2018-02-09T14:30:38.679Z,1.37
2018-02-09T14:32:04.908Z,1.31
2018-02-09T14:33:32.742Z,1.23
2018-02-09T14:34:59.953Z,1.21
2018-02-09T14:36:25.870Z,1.17
2018-02-09T14:37:53.457Z,1.14
2018-02-09T14:39:19.068Z,1.09
2018-02-09T14:40:47.095Z,1.10
2018-02-09T14:42:13.635Z,1.04
2018-02-09T14:43:40.713Z,1.05
2018-02-09T14:45:07.003Z,1.05
2018-02-09T14:46:34.930Z,1.09
2018-02-09T14:48:00.818Z,1.12
2018-02-09T14:49:27.826Z,1.16
2018-02-09T14:50:55.752Z,1.10
2018-02-09T14:52:21.781Z,1.12
2018-02-09T14:53:48.895Z,1.14
2018-02-09T14:55:17.077Z,1.13
2018-02-09T14:56:44.208Z,1.12
2018-02-09T14:58:11.196Z,1.08
2018-02-09T14:59:37.274Z,1.04
2018-02-09T15:01:04.350Z,1.00
2018-02-09T15:02:32.384Z,0.98
2018-02-09T15:03:59.565Z,0.95
2018-02-09T15:05:26.524Z,0.92
2018-02-09T15:06:52.526Z,0.87
2018-02-09T15:08:19.322Z,0.84
2018-02-09T15:09:47.482Z,0.80
2018-02-09T15:11:14.753Z,0.78
2018-02-09T15:12:41.886Z,0.73
2018-02-09T15:14:09.033Z,0.73
2018-02-09T15:15:36.081Z,0.76
2018-02-09T15:17:02.127Z,0.74
2018-02-09T15:18:30.203Z,0.69
2018-02-09T15:19:57.168Z,0.67
2018-02-09T15:21:24.184Z,0.67
2018-02-09T15:22:51.101Z,0.64
2018-02-09T15:24:17.565Z,0.63
2018-02-09T15:25:45.136Z,0.63
2018-02-09T15:27:12.409Z,0.65
2018-02-09T15:28:38.695Z,0.65
2018-02-09T15:30:05.700Z,0.61
2018-02-09T15:31:32.360Z,0.57
2018-02-09T15:32:59.503Z,0.57
2018-02-09T15:34:26.297Z,0.59
2018-02-09T15:35:52.477Z,0.57
2018-02-09T15:37:20.550Z,0.58
2018-02-09T15:38:47.088Z,0.59
2018-02-09T15:40:13.349Z,0.59
2018-02-09T15:41:39.537Z,0.62
2018-02-09T15:43:07.718Z,0.60
2018-02-09T15:44:33.805Z,0.53
2018-02-09T15:46:00.712Z,0.50
2018-02-09T15:47:28.354Z,0.49
2018-02-09T15:48:55.486Z,0.49
2018-02-09T15:50:21.044Z,0.47
2018-02-09T15:51:48.103Z,0.44
2018-02-09T15:53:15.940Z,0.41
2018-02-09T15:54:42.535Z,0.39
2018-02-09T15:56:08.562Z,0.37
2018-02-09T15:57:36.757Z,0.35
2018-02-09T15:59:03.720Z,0.33
2018-02-09T16:00:30.441Z,0.29
2018-02-09T16:01:57.604Z,0.25
2018-02-09T16:03:23.296Z,0.23
2018-02-09T16:04:50.810Z,0.22
2018-02-09T16:06:17.018Z,0.19
2018-02-09T16:07:44.125Z,0.13
2018-02-09T16:09:12.208Z,0.12
2018-02-09T16:10:37.719Z,0.07
2018-02-09T16:12:05.751Z,0.05
2018-02-09T16:13:31.629Z,0.02
2018-02-09T16:14:58.579Z,-0.03
2018-02-09T16:16:26.397Z,-0.01
2018-02-09T16:17:53.158Z,-0.06
2018-02-09T16:19:20.262Z,-0.14
2018-02-09T16:20:47.384Z,-0.18
2018-02-09T16:22:14.681Z,-0.20
2018-02-09T16:23:41.005Z,-0.26
2018-02-09T16:25:07.785Z,-0.29
2018-02-09T16:26:35.432Z,-0.34
2018-02-09T16:28:02.528Z,-0.36
2018-02-09T16:29:29.684Z,-0.38
2018-02-09T16:30:55.344Z,-0.40
2018-02-09T16:32:23.464Z,-0.42
2018-02-09T16:33:50.460Z,-0.42
2018-02-09T16:35:16.703Z,-0.45
2018-02-09T16:36:44.697Z,-0.48
2018-02-09T16:38:11.870Z,-0.48
2018-02-09T16:39:37.567Z,-0.53
2018-02-09T16:41:05.660Z,-0.53
2018-02-09T16:42:32.941Z,-0.55
2018-02-09T16:44:00.166Z,-0.57
2018-02-09T16:45:26.674Z,-0.59
2018-02-09T16:46:53.338Z,-0.61
2018-02-09T16:48:20.335Z,-0.62
2018-02-09T16:49:46.534Z,-0.65
2018-02-09T16:51:13.736Z,-0.68
2018-02-09T16:52:41.855Z,-0.70
2018-02-09T16:54:08.925Z,-0.71
2018-02-09T16:55:35.958Z,-0.70
2018-02-09T16:57:02.056Z,-0.74
2018-02-09T16:58:28.549Z,-0.76
2018-02-09T16:59:56.455Z,-0.76
2018-02-09T17:01:23.708Z,-0.76
2018-02-09T17:02:50.852Z,-0.79
2018-02-09T17:04:20.043Z,-0.81
2018-02-09T17:05:45.298Z,-0.82
2018-02-09T17:07:12.312Z,-0.81
2018-02-09T17:08:39.375Z,-0.84
2018-02-09T17:10:06.272Z,-0.84
2018-02-09T17:11:33.183Z,-0.87
2018-02-09T17:12:59.183Z,-0.89
2018-02-09T17:14:26.116Z,-0.89
2018-02-09T17:15:54.268Z,-0.87
2018-02-09T17:17:21.031Z,-0.88
2018-02-09T17:18:47.071Z,-0.89
2018-02-09T17:20:14.793Z,-0.92
2018-02-09T17:21:41.863Z,-0.92
2018-02-09T17:23:08.160Z,-0.94
2018-02-09T17:24:35.340Z,-0.95
2018-02-09T17:26:03.396Z,-0.97
2018-02-09T17:27:30.357Z,-0.99
2018-02-09T17:28:57.603Z,-1.04
2018-02-09T17:30:24.087Z,-1.05
2018-02-09T17:31:51.221Z,-1.06
2018-02-09T17:33:17.826Z,-1.08
2018-02-09T17:34:43.961Z,-1.09
2018-02-09T17:36:13.049Z,-1.09
2018-02-09T17:37:39.217Z,-1.14
2018-02-09T17:39:06.475Z,-1.18
2018-02-09T17:40:33.152Z,-1.20
2018-02-09T17:42:00.175Z,-1.21
2018-02-09T17:43:25.999Z,-1.24
2018-02-09T17:44:52.603Z,-1.25
2018-02-09T17:46:20.700Z,-1.26
2018-02-09T17:47:47.660Z,-1.28
2018-02-09T17:49:14.774Z,-1.29
2018-02-09T17:50:41.023Z,-1.30
2018-02-09T17:52:07.946Z,-1.31
2018-02-09T17:53:36.001Z,-1.38
2018-02-09T17:55:03.146Z,-1.40
2018-02-09T17:56:30.140Z,-1.39
2018-02-09T17:57:57.376Z,-1.41
2018-02-09T17:59:24.360Z,-1.42
2018-02-09T18:00:50.516Z,-1.44
2018-02-09T18:02:18.674Z,-1.43
2018-02-09T18:03:45.629Z,-1.44
2018-02-09T18:05:11.442Z,-1.47
2018-02-09T18:06:38.350Z,-1.48
2018-02-09T18:08:06.415Z,-1.48
2018-02-09T18:09:33.265Z,-1.49
2018-02-09T18:11:00.189Z,-1.48
2018-02-09T18:12:27.219Z,-1.48
2018-02-09T18:13:54.209Z,-1.50
2018-02-09T18:15:20.806Z,-1.50
2018-02-09T18:16:46.948Z,-1.52
2018-02-09T18:18:13.615Z,-1.54
2018-02-09T18:19:41.526Z,-1.54
2018-02-09T18:21:08.567Z,-1.57
2018-02-09T18:22:35.913Z,-1.59
2018-02-09T18:24:01.781Z,-1.58
2018-02-09T18:25:29.031Z,-1.58
2018-02-09T18:26:56.805Z,-1.56
2018-02-09T18:28:23.324Z,-1.58
2018-02-09T18:29:49.551Z,-1.59
2018-02-09T18:31:17.368Z,-1.60
2018-02-09T18:32:44.645Z,-1.59
2018-02-09T18:34:11.559Z,-1.60
2018-02-09T18:35:38.480Z,-1.63
2018-02-09T18:37:05.688Z,-1.66
2018-02-09T18:38:32.504Z,-1.66
2018-02-09T18:39:58.486Z,-1.68
2018-02-09T18:41:25.396Z,-1.70
2018-02-09T18:42:53.287Z,-1.66
2018-02-09T18:44:20.167Z,-1.66
2018-02-09T18:45:47.465Z,-1.65
2018-02-09T18:47:14.485Z,-1.67
2018-02-09T18:48:40.681Z,-1.70
2018-02-09T18:50:08.961Z,-1.73